ASS PETT   ATLETA DATA SEX CAT PCAT TEAM GG TEMPO GAP
  EBIKE  
1 99 RUGGIRELLO CLAUDIO 1966 M EB [1] HR TEAM 4 54:17.1
2 98 ASCHERO SIMONE 1989 M EB [2] ASD PRIERO 4 57:35.8 +3:18.7
3 96 COLOMBANO LUCA 1973 M EB [3] SCOTT SUMIN 4 59:21.6 +5:04.5
4 97 DE DUONNI CARLO 1972 M EB [4] E-BIKE I CINGHIALI 4 59:37.6 +5:20.5
  MTB  
1 340 ZUNINO MATTIA 1996 M EM [1] TEAM SPACEBIKES 4 1h02:55.5
2 278 GAMBARELLI SIMONE 1979 M M3 [1] FRANCESCONI RACING 4 1h07:34.2 +4:38.7
3 275 VALETTO FEDERICO 1996 M EM [2] ALBISOLABIKE 4 1h08:05.0 +5:09.5
4 350 AGUZZI MARCO 1982 M M3 [2] RAT RIDE ALL TERRAIN 4 1h08:23.2 +5:27.7
5 339 LEONCINI LUCA 1972 M M5 [1] UĀ  CYCLING TEAM 4 1h10:38.0 +7:42.5
6 349 AGUZZI GIANLUCA 1977 M M4 [1] RAT RIDE ALL TERRAIN 4 1h10:51.7 +7:56.2
7 338 FERRANDO STEFANO 1975 M M4 [2] UĀ  CYCLING TEAM 4 1h11:54.2 +8:58.7
8 362 DE FEO MATTEO 1990 M M1 [1] TUTTI I SENTIERI 4 1h13:21.7 +10:26.2
9 345 BAGNASCO PIER PAOLO 1966 M M6 [1] DREAM TEAM 4 1h13:42.7 +10:47.2
10 355 MARCIONETTI JONATHAN 1981 M M3 [3] TEAM FROGS 4 1h14:25.9 +11:30.4
11 342 VIGLINO EDOARDO 1989 M M1 [2] SPEEDY BIKE ASD 4 1h14:35.4 +11:39.9
12 279 GENTILE ANDREA 1993 M EM [3] ASD MAD WHEELS 4 1h15:29.9 +12:34.4
13 341 PIGLIA DAVIDE 1977 M M4 [3] SPEEDY BIKE ASD 4 1h16:05.9 +13:10.4
14 348 RODOLICO MARCO 1977 M M4 [4] DREAM TEAM 4 1h17:39.2 +14:43.7
15 358 OLIVIERO FABRIZIO 1974 M M4 [5] E-BIKE I CINGHIALI 4 1h18:12.4 +15:16.9
16 346 ERATOSTENE DANIELE 1979 M M3 [4] SPEEDY BIKE ASD 4 1h19:01.1 +16:05.6
17 357 TORCHIA MARCO 1987 M M2 [1] ANGRY WHEELS 4 1h19:37.4 +16:41.9
18 344 CORBELLINI VALERIO 1982 M M3 [5] SPEEDY BIKE ASD 4 1h20:12.1 +17:16.6
19 347 DELPONTE MATTEO 1980 M M3 [6] SPEEDY BIKE ASD 4 1h20:35.9 +17:40.4
20 364 CRAVANZOLA FABIO 1970 M M5 [2] MTB SENSA FREN 4 1h20:36.1 +17:40.6
21 343 PISCEDDA RENATO 1974 M M4 [6] CUSATI BIKE RACING 4 1h21:32.1 +18:36.6
22 359 MARCHISIO EDOARDO 1991 M M1 [3] DREAM TEAM 4 1h22:15.1 +19:19.6
23 277 BELTRAME LUCA 1988 M M1 [4] REACTION TEAM 4 1h23:01.1 +20:05.6
24 351 GIARGIA ROBERTO 1977 M M4 [7] MAD WHEELS 3 1h06:45.3 +1 Giro
25 352 TORCHIO GUIDO 1974 M M4 [8] MAGICUNEO 3 1h07:54.5 +1 Giro
26 361 GAMBA MASSIMO 1976 M M4 [9] GIORNALIERA 3 1h08:52.2 +1 Giro
27 356 ARGENTERO PAOLO 1962 M M7 [1] SPEEDY BIKE ASD 3 1h11:18.2 +1 Giro
28 353 NOVENA MARCO 1972 M M5 [3] FBIKE 3 1h11:40.7 +1 Giro
29 363 BO VALERIO 1962 M M7 [2] VIGOR 3 1h11:50.0 +1 Giro
30 337 COGNETTO GUIDO 1955 M M8 [1] ASD EDILCREM 3 1h13:27.9 +1 Giro
31 274 CAPELLI FULVIO 1986 M M2 [2] HR TEAM 3 1h15:37.7 +1 Giro
32 360 FALCONE ROBERTO 1968 M M5 [4] TEAM GROPPO 3 1h16:01.4 +1 Giro
33 365 PULICI LUCA 1976 M M4 [10] OFFICINE THOMAS TREK 3 1h16:58.2 +1 Giro
34 354 EANDI FABRIZIO 1991 M M1 [5] GIORNALIERA 3 1h17:37.4 +1 Giro
35 367 CANNILLO ANTONIO 1992 M M1 [6] DYNAMIC CENTER 3 1h18:00.4 +1 Giro
36 366 CALUCCIO LUIGI 1961 M M7 [3] LA BICICLETTERIA 3 1h18:32.4 +1 Giro
37 368 MACCAPANI ANDREA 1976 M M4 [11] MASTER TEAM 1 52:18.6 +3 Giri